createdAt,value
2023-02-03T00:01:59.832Z,3.41
2023-02-03T00:04:28.480Z,3.41
2023-02-03T00:06:57.890Z,3.38
2023-02-03T00:09:26.872Z,3.49
2023-02-03T00:11:55.948Z,3.52
2023-02-03T00:14:24.397Z,3.33
2023-02-03T00:16:54.149Z,3.39
2023-02-03T00:19:22.782Z,3.47
2023-02-03T00:21:51.309Z,3.39
2023-02-03T00:24:20.740Z,3.38
2023-02-03T00:26:49.288Z,3.41
2023-02-03T00:29:18.618Z,3.39
2023-02-03T00:31:47.399Z,3.35
2023-02-03T00:34:17.310Z,3.35
2023-02-03T00:36:46.696Z,3.30
2023-02-03T00:39:15.699Z,3.31
2023-02-03T00:41:44.288Z,3.32
2023-02-03T00:44:12.891Z,3.50
2023-02-03T00:46:41.552Z,3.36
2023-02-03T00:49:09.970Z,3.44
2023-02-03T00:51:39.895Z,3.41
2023-02-03T00:54:08.780Z,3.39
2023-02-03T00:56:37.263Z,3.37
2023-02-03T00:59:07.710Z,3.37
2023-02-03T01:01:38.219Z,3.35
2023-02-03T01:04:06.985Z,3.37
2023-02-03T01:06:35.825Z,3.35
2023-02-03T01:09:05.732Z,3.44
2023-02-03T01:11:35.852Z,3.38
2023-02-03T01:14:04.422Z,3.53
2023-02-03T01:16:36.494Z,3.62
2023-02-03T01:19:05.954Z,3.86
2023-02-03T01:21:36.298Z,3.98
2023-02-03T01:24:06.523Z,4.22
2023-02-03T01:26:35.093Z,4.32
2023-02-03T01:29:04.181Z,4.38
2023-02-03T01:31:37.045Z,4.49
2023-02-03T01:34:12.235Z,4.52
2023-02-03T01:36:41.235Z,4.49
2023-02-03T01:39:12.291Z,4.61
2023-02-03T01:41:42.138Z,4.50
2023-02-03T01:44:52.382Z,4.68
2023-02-03T01:47:32.501Z,4.66
2023-02-03T01:50:13.286Z,4.64
2023-02-03T01:52:46.072Z,4.64
2023-02-03T01:55:21.901Z,4.65
2023-02-03T01:57:57.055Z,4.72
2023-02-03T02:00:27.422Z,4.67
2023-02-03T02:03:02.545Z,4.76
2023-02-03T02:05:36.863Z,4.67
2023-02-03T02:08:07.802Z,4.59
2023-02-03T02:10:37.761Z,4.69
2023-02-03T02:13:07.985Z,4.64
2023-02-03T02:15:51.107Z,4.64
2023-02-03T02:18:36.175Z,4.63
2023-02-03T02:21:53.527Z,4.66
2023-02-03T02:25:03.805Z,4.77
2023-02-03T02:28:37.399Z,4.74
2023-02-03T02:31:44.981Z,4.76
2023-02-03T02:34:23.993Z,4.73
2023-02-03T02:37:06.520Z,4.73
2023-02-03T02:39:44.995Z,4.74
2023-02-03T02:42:23.094Z,4.82
2023-02-03T02:44:59.847Z,4.77
2023-02-03T02:47:32.571Z,4.87
2023-02-03T02:50:09.388Z,4.95
2023-02-03T02:52:44.093Z,4.97
2023-02-03T02:55:24.597Z,4.83
2023-02-03T02:58:00.606Z,4.94
2023-02-03T03:00:33.069Z,4.86
2023-02-03T03:03:15.648Z,4.90
2023-02-03T03:05:52.115Z,4.94
2023-02-03T03:08:33.144Z,5.00
2023-02-03T03:11:04.038Z,5.03
2023-02-03T03:13:40.598Z,4.97
2023-02-03T03:16:13.035Z,5.09
2023-02-03T03:18:48.087Z,5.02
2023-02-03T03:21:26.281Z,5.16
2023-02-03T03:24:00.541Z,5.16
2023-02-03T03:26:37.319Z,5.20
2023-02-03T03:29:14.404Z,5.20
2023-02-03T03:31:43.846Z,5.16
2023-02-03T03:34:15.591Z,5.21
2023-02-03T03:36:51.438Z,5.30
2023-02-03T03:39:31.845Z,5.30
2023-02-03T03:42:08.868Z,5.27
2023-02-03T03:44:48.036Z,5.21
2023-02-03T03:47:25.224Z,5.22
2023-02-03T03:49:59.025Z,5.26
2023-02-03T03:52:34.827Z,5.33
2023-02-03T03:55:09.410Z,5.37
2023-02-03T03:57:44.206Z,5.31
2023-02-03T04:00:19.776Z,5.32
2023-02-03T04:02:55.379Z,5.32
2023-02-03T04:05:26.533Z,5.28
2023-02-03T04:07:55.585Z,5.33
2023-02-03T04:10:31.995Z,5.32
2023-02-03T04:13:00.650Z,5.40
2023-02-03T04:15:29.921Z,5.39
2023-02-03T04:17:58.651Z,5.37
2023-02-03T04:20:29.544Z,5.33
2023-02-03T04:22:59.066Z,5.30
2023-02-03T04:25:27.986Z,5.40
2023-02-03T04:27:56.974Z,5.37
2023-02-03T04:30:26.184Z,5.37
2023-02-03T04:32:55.214Z,5.42
2023-02-03T04:35:23.741Z,5.39
2023-02-03T04:37:53.879Z,5.42
2023-02-03T04:40:22.687Z,5.43
2023-02-03T04:42:51.205Z,5.38
2023-02-03T04:45:19.988Z,5.47
2023-02-03T04:47:54.677Z,5.41
2023-02-03T04:50:23.338Z,5.34
2023-02-03T04:52:53.249Z,5.39
2023-02-03T04:55:21.986Z,5.38
2023-02-03T04:57:50.676Z,5.33
2023-02-03T05:00:20.088Z,5.40
2023-02-03T05:02:49.694Z,5.40
2023-02-03T05:05:19.013Z,5.46
2023-02-03T05:07:47.647Z,5.47
2023-02-03T05:10:17.864Z,5.41
2023-02-03T05:12:46.659Z,5.47
2023-02-03T05:15:16.187Z,5.40
2023-02-03T05:17:44.868Z,5.41
2023-02-03T05:20:14.343Z,5.38
2023-02-03T05:22:42.916Z,5.37
2023-02-03T05:25:12.040Z,5.39
2023-02-03T05:27:43.056Z,5.38
2023-02-03T05:30:13.117Z,5.47
2023-02-03T05:32:41.593Z,5.48
2023-02-03T05:35:10.600Z,5.38
2023-02-03T05:37:39.317Z,5.44
2023-02-03T05:40:27.624Z,5.42
2023-02-03T05:42:57.861Z,5.45
2023-02-03T05:45:26.790Z,5.48
2023-02-03T05:47:55.499Z,5.41
2023-02-03T05:50:24.341Z,5.43
2023-02-03T05:52:53.168Z,5.43
2023-02-03T05:55:21.861Z,5.46
2023-02-03T05:57:50.538Z,5.43
2023-02-03T06:00:22.701Z,5.41
2023-02-03T06:02:54.077Z,5.48
2023-02-03T06:05:23.990Z,5.47
2023-02-03T06:07:52.993Z,5.48
2023-02-03T06:10:22.843Z,5.42
2023-02-03T06:12:52.204Z,5.54
2023-02-03T06:15:26.038Z,5.51
2023-02-03T06:17:54.674Z,5.47
2023-02-03T06:20:23.741Z,5.52
2023-02-03T06:22:52.901Z,5.41
2023-02-03T06:25:23.257Z,5.40
2023-02-03T06:27:52.544Z,5.37
2023-02-03T06:30:23.769Z,5.32
2023-02-03T06:33:04.958Z,5.37
2023-02-03T06:35:38.178Z,5.39
2023-02-03T06:38:06.858Z,5.38
2023-02-03T06:40:35.562Z,5.36
2023-02-03T06:46:13.422Z,5.32
2023-02-03T06:48:43.594Z,5.32
2023-02-03T06:51:12.276Z,5.34
2023-02-03T06:53:40.927Z,5.35
2023-02-03T06:56:09.580Z,5.36
2023-02-03T06:58:42.463Z,5.33
2023-02-03T07:01:11.411Z,5.42
2023-02-03T07:03:40.305Z,5.34
2023-02-03T07:06:10.561Z,5.36
2023-02-03T07:08:40.080Z,5.34
2023-02-03T07:11:08.827Z,5.39
2023-02-03T07:13:37.639Z,5.39
2023-02-03T07:16:07.691Z,5.42
2023-02-03T07:18:46.911Z,5.42
2023-02-03T07:21:19.325Z,5.42
2023-02-03T07:23:49.847Z,5.43
2023-02-03T07:26:31.559Z,5.30
2023-02-03T07:29:01.705Z,5.32
2023-02-03T07:31:37.105Z,5.36
2023-02-03T07:34:07.500Z,5.41
2023-02-03T07:36:38.125Z,5.44
2023-02-03T07:39:07.406Z,5.52
2023-02-03T07:41:38.716Z,5.59
2023-02-03T07:44:09.514Z,5.61
2023-02-03T07:46:39.889Z,5.67
2023-02-03T07:49:09.465Z,5.58
2023-02-03T07:51:40.015Z,5.59
2023-02-03T07:54:10.460Z,5.61
2023-02-03T07:56:39.209Z,5.67
2023-02-03T07:59:07.994Z,5.60
2023-02-03T08:01:36.953Z,5.69
2023-02-03T08:04:16.535Z,5.67
2023-02-03T08:06:46.763Z,5.79
2023-02-03T08:09:15.463Z,5.82
2023-02-03T08:11:44.134Z,5.68
2023-02-03T08:14:12.849Z,5.66
2023-02-03T08:16:41.528Z,5.71
2023-02-03T08:19:10.071Z,5.73
2023-02-03T08:21:38.750Z,5.72
2023-02-03T08:24:09.461Z,5.73
2023-02-03T08:26:38.920Z,5.79
2023-02-03T08:29:07.923Z,5.81
2023-02-03T08:31:37.293Z,5.84
2023-02-03T08:34:06.308Z,5.79
2023-02-03T08:36:37.084Z,5.80
2023-02-03T08:39:05.923Z,5.88
2023-02-03T08:41:36.461Z,5.93
2023-02-03T08:44:05.492Z,6.03
2023-02-03T08:46:35.876Z,5.97
2023-02-03T08:49:04.582Z,5.97
2023-02-03T08:51:33.183Z,5.92
2023-02-03T08:54:01.847Z,5.99
2023-02-03T08:56:30.533Z,6.07
2023-02-03T08:59:01.483Z,5.97
2023-02-03T09:01:30.819Z,6.03
2023-02-03T09:04:01.972Z,6.09
2023-02-03T09:06:31.539Z,6.10
2023-02-03T09:09:00.294Z,6.04
2023-02-03T09:11:29.036Z,6.04
2023-02-03T09:13:58.058Z,6.07
2023-02-03T09:16:28.679Z,6.10
2023-02-03T09:18:57.649Z,6.18
2023-02-03T09:21:34.007Z,6.08
2023-02-03T09:24:09.135Z,6.06
2023-02-03T09:26:37.784Z,6.11
2023-02-03T09:29:07.251Z,6.10
2023-02-03T09:31:37.663Z,6.12
2023-02-03T09:34:06.424Z,6.17
2023-02-03T09:36:35.928Z,6.14
2023-02-03T09:39:05.429Z,6.10
2023-02-03T09:42:01.353Z,6.15
2023-02-03T09:44:42.392Z,6.17
2023-02-03T09:47:18.205Z,6.09
2023-02-03T09:49:53.262Z,6.22
2023-02-03T09:52:25.930Z,6.21
2023-02-03T09:55:02.295Z,6.17
2023-02-03T09:57:36.560Z,6.11
2023-02-03T10:00:21.031Z,6.15
2023-02-03T10:03:01.911Z,6.10
2023-02-03T10:06:03.193Z,6.13
2023-02-03T10:08:52.260Z,6.19
2023-02-03T10:11:40.043Z,6.27
2023-02-03T10:14:32.571Z,6.37
2023-02-03T10:17:20.122Z,6.44
2023-02-03T10:19:56.930Z,6.46
2023-02-03T10:22:30.727Z,6.47
2023-02-03T10:25:07.052Z,6.52
2023-02-03T10:27:39.117Z,6.42
2023-02-03T10:30:21.540Z,6.51
2023-02-03T10:32:55.429Z,6.55
2023-02-03T10:35:41.437Z,6.57
2023-02-03T10:38:20.596Z,6.68
2023-02-03T10:40:49.739Z,6.69
2023-02-03T10:43:35.953Z,6.68
2023-02-03T10:46:05.067Z,6.76
2023-02-03T10:48:33.629Z,6.79
2023-02-03T10:51:04.425Z,6.88
2023-02-03T10:53:36.630Z,7.09
2023-02-03T10:56:10.492Z,7.14
2023-02-03T10:58:47.616Z,7.21
2023-02-03T11:01:19.532Z,7.18
2023-02-03T11:04:01.205Z,7.19
2023-02-03T11:06:32.639Z,7.07
2023-02-03T11:09:01.796Z,6.95
2023-02-03T11:11:34.438Z,6.88
2023-02-03T11:14:18.127Z,6.81
2023-02-03T11:16:48.205Z,6.83
2023-02-03T11:19:20.639Z,6.86
2023-02-03T11:21:56.025Z,6.92
2023-02-03T11:24:29.529Z,7.04
2023-02-03T11:27:03.156Z,7.00
2023-02-03T11:29:34.778Z,7.05
2023-02-03T11:32:21.749Z,7.16
2023-02-03T11:34:59.625Z,6.97
2023-02-03T11:37:34.662Z,6.97
2023-02-03T11:40:29.704Z,6.88
2023-02-03T11:43:06.167Z,6.91
2023-02-03T11:45:42.607Z,6.73
2023-02-03T11:48:29.134Z,6.76
2023-02-03T11:51:06.896Z,6.78
2023-02-03T11:54:01.854Z,6.80
2023-02-03T11:56:56.889Z,6.70
2023-02-03T12:00:04.763Z,6.72
2023-02-03T12:03:19.024Z,6.69
2023-02-03T12:06:26.743Z,6.69
2023-02-03T12:09:22.822Z,6.68
2023-02-03T12:12:27.549Z,6.77
2023-02-03T12:15:17.388Z,6.95
2023-02-03T12:18:09.582Z,6.89
2023-02-03T12:21:06.040Z,6.88
2023-02-03T12:23:49.022Z,6.91
2023-02-03T12:26:25.202Z,6.85
2023-02-03T12:29:05.818Z,6.86
2023-02-03T12:31:43.575Z,6.79
2023-02-03T12:34:24.106Z,6.74
2023-02-03T12:37:03.740Z,6.70
2023-02-03T12:39:40.703Z,6.65
2023-02-03T12:42:20.172Z,6.74
2023-02-03T12:44:55.191Z,6.69
2023-02-03T12:47:31.667Z,6.71
2023-02-03T12:50:08.589Z,6.76
2023-02-03T12:52:46.276Z,6.71
2023-02-03T12:55:27.102Z,6.76
2023-02-03T12:58:03.319Z,6.77
2023-02-03T13:00:50.284Z,6.75
2023-02-03T13:03:28.259Z,6.72
2023-02-03T13:06:11.618Z,6.78
2023-02-03T13:08:47.379Z,6.90
2023-02-03T13:11:27.296Z,6.96
2023-02-03T13:14:05.161Z,7.03
2023-02-03T13:16:44.607Z,7.03
2023-02-03T13:19:19.851Z,7.02
2023-02-03T13:21:50.672Z,7.01
2023-02-03T13:24:21.377Z,7.07
2023-02-03T13:27:18.491Z,6.97
2023-02-03T13:30:26.257Z,6.98
2023-02-03T13:33:43.280Z,7.00
2023-02-03T13:36:40.515Z,7.01
2023-02-03T13:39:30.456Z,7.08
2023-02-03T13:42:26.714Z,7.17
2023-02-03T13:45:04.030Z,7.26
2023-02-03T13:47:34.244Z,7.17
2023-02-03T13:50:08.550Z,7.16
2023-02-03T13:52:47.008Z,7.15
2023-02-03T13:55:32.928Z,7.22
2023-02-03T13:58:02.154Z,7.28
2023-02-03T14:01:30.598Z,7.19
2023-02-03T14:03:59.937Z,7.26
2023-02-03T14:07:04.030Z,7.24
2023-02-03T14:09:49.177Z,7.18
2023-02-03T14:13:04.378Z,7.13
2023-02-03T14:15:36.541Z,7.09
2023-02-03T14:18:36.146Z,7.05
2023-02-03T14:21:20.985Z,7.03
2023-02-03T14:24:03.883Z,7.03
2023-02-03T14:26:40.127Z,7.08
2023-02-03T14:29:12.251Z,7.00
2023-02-03T14:32:00.046Z,7.02
2023-02-03T14:34:40.829Z,6.96
2023-02-03T14:37:27.564Z,6.99
2023-02-03T14:40:27.577Z,6.89
2023-02-03T14:43:36.180Z,6.92
2023-02-03T14:46:45.120Z,6.92
2023-02-03T14:49:33.276Z,6.93
2023-02-03T14:52:22.493Z,6.91
2023-02-03T14:55:18.951Z,6.81
2023-02-03T14:57:52.357Z,6.88
2023-02-03T15:00:31.988Z,6.90
2023-02-03T15:03:22.686Z,6.83
2023-02-03T15:05:55.737Z,6.85
2023-02-03T15:08:42.691Z,6.91
2023-02-03T15:11:29.455Z,6.96
2023-02-03T15:14:18.930Z,6.93
2023-02-03T15:16:56.081Z,6.94
2023-02-03T15:19:28.304Z,6.94
2023-02-03T15:21:57.265Z,7.06
2023-02-03T15:24:27.490Z,6.94
2023-02-03T15:26:57.889Z,6.91
2023-02-03T15:29:33.083Z,7.00
2023-02-03T15:32:13.847Z,6.92
2023-02-03T15:34:49.340Z,6.94
2023-02-03T15:37:24.825Z,7.02
2023-02-03T15:40:04.066Z,6.93
2023-02-03T15:42:43.386Z,7.10
2023-02-03T15:45:27.835Z,6.94
2023-02-03T15:48:03.291Z,6.94
2023-02-03T15:50:39.555Z,7.01
2023-02-03T15:53:19.066Z,7.06
2023-02-03T15:55:53.273Z,7.04
2023-02-03T15:58:27.028Z,7.00
2023-02-03T16:01:00.635Z,7.05
2023-02-03T16:03:40.087Z,7.01
2023-02-03T16:06:17.550Z,7.04
2023-02-03T16:08:48.368Z,7.02
2023-02-03T16:11:33.120Z,7.06
2023-02-03T16:14:04.790Z,7.11
2023-02-03T16:16:39.857Z,7.17
2023-02-03T16:19:16.728Z,7.15
2023-02-03T16:21:55.750Z,7.19
2023-02-03T16:24:42.769Z,7.15
2023-02-03T16:27:36.570Z,7.15
2023-02-03T16:30:42.982Z,7.13
2023-02-03T16:33:36.067Z,7.11
2023-02-03T16:36:31.160Z,7.07
2023-02-03T16:39:21.625Z,7.13
2023-02-03T16:42:07.936Z,7.17
2023-02-03T16:44:55.430Z,7.26
2023-02-03T16:47:46.452Z,7.17
2023-02-03T16:50:38.813Z,7.24
2023-02-03T16:53:14.277Z,7.19
2023-02-03T16:55:43.378Z,7.37
2023-02-03T16:58:12.820Z,7.28
2023-02-03T17:00:46.801Z,7.41
2023-02-03T17:03:19.087Z,7.39
2023-02-03T17:05:49.387Z,7.31
2023-02-03T17:08:21.539Z,7.44
2023-02-03T17:10:50.963Z,7.42
2023-02-03T17:13:23.010Z,7.39
2023-02-03T17:15:53.722Z,7.47
2023-02-03T17:18:22.754Z,7.38
2023-02-03T17:20:51.956Z,7.40
2023-02-03T17:23:20.762Z,7.40
2023-02-03T17:25:51.783Z,7.43
2023-02-03T17:28:20.559Z,7.45
2023-02-03T17:31:00.015Z,7.54
2023-02-03T17:33:30.387Z,7.61
2023-02-03T17:36:06.648Z,7.56
2023-02-03T17:55:22.671Z,7.51
2023-02-03T17:57:51.474Z,7.43
2023-02-03T18:00:20.917Z,7.50
2023-02-03T18:02:53.490Z,7.57
2023-02-03T18:05:23.144Z,7.46
2023-02-03T18:08:16.382Z,7.47
2023-02-03T18:11:13.139Z,7.45
2023-02-03T18:13:51.474Z,7.38
2023-02-03T18:16:25.717Z,7.48
2023-02-03T18:18:57.793Z,7.50
2023-02-03T18:21:27.919Z,7.60
2023-02-03T18:23:59.896Z,7.58
2023-02-03T18:26:32.596Z,7.51
2023-02-03T18:29:02.091Z,7.57
2023-02-03T18:31:30.909Z,7.55
2023-02-03T18:34:04.999Z,7.70
2023-02-03T18:36:34.118Z,7.65
2023-02-03T18:39:03.294Z,7.68
2023-02-03T18:41:31.938Z,7.66
2023-02-03T18:44:00.827Z,7.70
2023-02-03T18:46:32.423Z,7.75
2023-02-03T18:49:02.949Z,7.71
2023-02-03T18:51:31.525Z,7.61
2023-02-03T18:54:01.377Z,7.79
2023-02-03T18:56:35.172Z,7.78
2023-02-03T18:59:11.145Z,7.80
2023-02-03T19:01:40.796Z,7.88
2023-02-03T19:04:11.709Z,7.88
2023-02-03T19:06:45.398Z,7.97
2023-02-03T19:09:17.949Z,7.92
2023-02-03T19:11:47.100Z,7.98
2023-02-03T19:14:16.434Z,7.95
2023-02-03T19:16:45.587Z,8.04
2023-02-03T19:19:15.751Z,8.02
2023-02-03T19:21:44.318Z,8.00
2023-02-03T19:24:15.072Z,8.05
2023-02-03T19:26:44.006Z,7.97
2023-02-03T19:29:13.088Z,7.90
2023-02-03T19:31:41.817Z,7.94
2023-02-03T19:34:10.489Z,7.84
2023-02-03T19:36:40.589Z,7.86
2023-02-03T19:39:09.355Z,7.85
2023-02-03T19:41:38.091Z,7.78
2023-02-03T19:44:07.959Z,7.85
2023-02-03T19:46:38.436Z,7.80
2023-02-03T19:49:11.081Z,7.83
2023-02-03T19:51:41.829Z,7.89
2023-02-03T19:54:13.625Z,7.91
2023-02-03T19:56:42.958Z,7.82
2023-02-03T19:59:11.994Z,7.80
2023-02-03T20:01:40.754Z,7.77
2023-02-03T20:04:09.406Z,7.71
2023-02-03T20:06:38.311Z,7.64
2023-02-03T20:09:08.568Z,7.73
2023-02-03T20:11:37.413Z,7.76
2023-02-03T20:14:06.735Z,7.70
2023-02-03T20:16:35.320Z,7.60
2023-02-03T20:19:04.217Z,7.56
2023-02-03T20:21:32.978Z,7.54
2023-02-03T20:24:02.184Z,7.41
2023-02-03T20:26:32.523Z,7.49
2023-02-03T20:29:01.343Z,7.38
2023-02-03T20:31:30.227Z,7.38
2023-02-03T20:33:59.202Z,7.30
2023-02-03T20:36:27.996Z,6.99
2023-02-03T20:38:56.884Z,6.83
2023-02-03T20:41:26.249Z,6.73
2023-02-03T20:43:56.603Z,6.77
2023-02-03T20:46:25.563Z,6.81
2023-02-03T20:48:55.849Z,6.79
2023-02-03T20:51:24.725Z,6.94
2023-02-03T20:53:53.665Z,6.89
2023-02-03T20:56:22.942Z,7.01
2023-02-03T20:58:52.478Z,7.04
2023-02-03T21:01:23.968Z,7.10
2023-02-03T21:04:11.934Z,7.20
2023-02-03T21:06:41.154Z,7.08
2023-02-03T21:09:17.009Z,7.12
2023-02-03T21:11:46.532Z,7.04
2023-02-03T21:14:21.980Z,6.92
2023-02-03T21:16:54.257Z,6.90
2023-02-03T21:19:34.577Z,6.90
2023-02-03T21:22:18.506Z,6.82
2023-02-03T21:24:54.360Z,6.84
2023-02-03T21:27:30.328Z,6.84
2023-02-03T21:30:00.919Z,6.80
2023-02-03T21:32:39.534Z,6.77
2023-02-03T21:35:25.844Z,6.75
2023-02-03T21:38:01.972Z,6.81
2023-02-03T21:40:33.309Z,6.75
2023-02-03T21:43:03.414Z,6.84
2023-02-03T21:45:39.156Z,6.88
2023-02-03T21:48:30.032Z,6.91
2023-02-03T21:51:03.363Z,6.94
2023-02-03T21:53:35.924Z,6.90
2023-02-03T21:56:21.123Z,6.91
2023-02-03T21:58:52.342Z,6.91
2023-02-03T22:01:23.166Z,6.90
2023-02-03T22:03:55.538Z,7.00
2023-02-03T22:06:27.650Z,6.97
2023-02-03T22:08:58.352Z,6.99
2023-02-03T22:11:29.956Z,7.06
2023-02-03T22:13:59.175Z,6.98
2023-02-03T22:16:29.058Z,7.00
2023-02-03T22:18:59.077Z,7.05
2023-02-03T22:21:28.516Z,7.00
2023-02-03T22:23:57.301Z,6.92
2023-02-03T22:26:26.029Z,6.83
2023-02-03T22:28:54.857Z,6.85
2023-02-03T22:31:23.690Z,6.83
2023-02-03T22:33:52.441Z,6.78
2023-02-03T22:36:23.629Z,6.68
2023-02-03T22:38:52.998Z,6.75
2023-02-03T22:41:22.035Z,6.72
2023-02-03T22:43:50.793Z,6.74
2023-02-03T22:46:20.154Z,6.77
2023-02-03T22:48:49.211Z,6.78
2023-02-03T22:51:18.269Z,6.83
2023-02-03T22:53:48.573Z,6.85
2023-02-03T22:56:17.340Z,6.85
2023-02-03T22:58:46.101Z,6.78
2023-02-03T23:01:14.791Z,6.86
2023-02-03T23:03:43.481Z,6.92
2023-02-03T23:06:12.369Z,6.95
2023-02-03T23:08:42.129Z,7.01
2023-02-03T23:11:12.141Z,6.95
2023-02-03T23:13:40.995Z,7.05
2023-02-03T23:16:09.822Z,7.05
2023-02-03T23:18:38.686Z,7.05
2023-02-03T23:21:07.676Z,7.09
2023-02-03T23:23:36.370Z,7.11
2023-02-03T23:26:05.238Z,7.08
2023-02-03T23:28:35.392Z,7.05
2023-02-03T23:31:04.881Z,6.97
2023-02-03T23:33:33.534Z,6.99
2023-02-03T23:36:01.160Z,6.98
2023-02-03T23:38:29.902Z,7.03
2023-02-03T23:40:58.515Z,6.93
2023-02-03T23:43:27.031Z,6.85
2023-02-03T23:45:57.023Z,6.95
2023-02-03T23:48:25.650Z,6.92
2023-02-03T23:50:54.274Z,6.85
2023-02-03T23:53:22.804Z,6.88
2023-02-03T23:55:51.405Z,6.74
2023-02-03T23:58:19.940Z,6.85
